Time,TemperatureF,DewpointF,PressureIn,WindDirection,WindDirectionDegrees,WindSpeedMPH,WindSpeedGustMPH,Humidity,HourlyPrecipIn,Conditions,Clouds,dailyrainin,SoftwareType,DateUTC
2013-05-03 00:00:00,29.7,26.0,30.56,North,0,1.6,1.6,86,0.00,,,0.00,WUHU216HW,2013-05-03 05:00:00,
2013-05-03 00:05:00,29.7,26.0,30.56,North,0,1.8,1.8,86,0.00,,,0.00,WUHU216HW,2013-05-03 05:05:00,
2013-05-03 00:10:00,29.7,26.0,30.56,North,0,1.8,1.8,86,0.00,,,0.00,WUHU216HW,2013-05-03 05:10:00,
2013-05-03 00:30:00,29.7,26.0,30.54,North,0,2.5,2.5,86,0.00,,,0.00,WUHU216HW,2013-05-03 05:30:00,
2013-05-03 00:35:00,29.7,26.0,30.54,North,0,2.5,2.5,86,0.00,,,0.00,WUHU216HW,2013-05-03 05:35:00,
2013-05-03 01:00:00,29.5,26.1,30.53,North,0,2.2,2.2,87,0.00,,,0.00,WUHU216HW,2013-05-03 06:00:00,
2013-05-03 01:05:00,29.5,26.1,30.53,North,0,2.2,2.2,87,0.00,,,0.00,WUHU216HW,2013-05-03 06:05:00,
2013-05-03 01:30:00,29.5,25.8,30.52,North,0,1.1,1.1,86,0.00,,,0.00,WUHU216HW,2013-05-03 06:30:00,
2013-05-03 01:35:00,29.5,25.8,30.52,North,0,1.1,1.1,86,0.00,,,0.00,WUHU216HW,2013-05-03 06:35:00,
2013-05-03 02:00:00,29.5,25.8,30.51,North,0,1.8,1.8,86,0.00,,,0.00,WUHU216HW,2013-05-03 07:00:00,
2013-05-03 02:05:00,29.5,25.8,30.51,North,0,1.8,1.8,86,0.00,,,0.00,WUHU216HW,2013-05-03 07:05:00,
2013-05-03 02:30:00,29.5,26.1,30.50,North,0,1.3,1.3,87,0.00,,,0.00,WUHU216HW,2013-05-03 07:30:00,
2013-05-03 02:35:00,29.5,26.1,30.50,North,0,1.3,1.3,87,0.00,,,0.00,WUHU216HW,2013-05-03 07:35:00,
2013-05-03 03:00:00,29.5,26.1,30.49,North,0,2.2,2.2,87,0.00,,,0.00,WUHU216HW,2013-05-03 08:00:00,
2013-05-03 03:05:00,29.5,26.1,30.49,North,0,2.2,2.2,87,0.00,,,0.00,WUHU216HW,2013-05-03 08:05:00,
2013-05-03 03:30:00,29.3,26.3,30.49,North,0,1.3,1.3,88,0.00,,,0.00,WUHU216HW,2013-05-03 08:30:00,
2013-05-03 03:35:00,29.3,26.3,30.49,North,0,1.3,1.3,88,0.00,,,0.00,WUHU216HW,2013-05-03 08:35:00,
2013-05-03 04:00:00,29.5,26.5,30.48,North,0,2.5,2.5,88,0.00,,,0.00,WUHU216HW,2013-05-03 09:00:00,
2013-05-03 04:05:00,29.5,26.5,30.48,North,0,2.5,2.5,88,0.00,,,0.00,WUHU216HW,2013-05-03 09:05:00,
2013-05-03 04:30:00,29.3,26.3,30.49,North,0,0.4,0.4,88,0.00,,,0.00,WUHU216HW,2013-05-03 09:30:00,
2013-05-03 04:35:00,29.3,26.3,30.49,North,0,0.4,0.4,88,0.00,,,0.00,WUHU216HW,2013-05-03 09:35:00,
2013-05-03 05:00:00,29.3,25.9,30.48,North,0,0.4,0.4,87,0.00,,,0.00,WUHU216HW,2013-05-03 10:00:00,
2013-05-03 05:05:00,29.3,25.9,30.48,North,0,0.4,0.4,87,0.00,,,0.00,WUHU216HW,2013-05-03 10:05:00,
2013-05-03 05:30:00,29.3,26.3,30.46,North,0,1.6,1.6,88,0.00,,,0.00,WUHU216HW,2013-05-03 10:30:00,
2013-05-03 05:35:00,29.3,26.3,30.46,North,0,1.6,1.6,88,0.00,,,0.00,WUHU216HW,2013-05-03 10:35:00,
2013-05-03 06:00:00,29.3,26.3,30.46,North,0,1.1,1.1,88,0.00,,,0.00,WUHU216HW,2013-05-03 11:00:00,
2013-05-03 06:05:00,29.3,26.3,30.46,North,0,1.1,1.1,88,0.00,,,0.00,WUHU216HW,2013-05-03 11:05:00,
2013-05-03 06:30:00,29.5,26.5,30.46,North,0,3.4,3.4,88,0.00,,,0.00,WUHU216HW,2013-05-03 11:30:00,
2013-05-03 06:35:00,29.5,26.5,30.46,North,0,3.4,3.4,88,0.00,,,0.00,WUHU216HW,2013-05-03 11:35:00,
2013-05-03 07:00:00,29.5,26.5,30.45,North,0,2.5,2.5,88,0.00,,,0.00,WUHU216HW,2013-05-03 12:00:00,
2013-05-03 07:05:00,29.5,26.5,30.45,North,0,2.5,2.5,88,0.00,,,0.00,WUHU216HW,2013-05-03 12:05:00,
2013-05-03 07:30:00,29.9,26.8,30.45,North,0,2.7,2.7,88,0.00,,,0.00,WUHU216HW,2013-05-03 12:30:00,
2013-05-03 07:35:00,29.9,26.8,30.45,North,0,2.7,2.7,88,0.00,,,0.00,WUHU216HW,2013-05-03 12:35:00,
2013-05-03 08:00:00,30.1,26.6,30.45,North,0,1.6,1.6,87,0.00,,,0.00,WUHU216HW,2013-05-03 13:00:00,
2013-05-03 08:05:00,30.1,26.6,30.45,North,0,1.6,1.6,87,0.00,,,0.00,WUHU216HW,2013-05-03 13:05:00,
2013-05-03 08:30:00,30.4,27.4,30.45,North,0,2.0,2.0,88,0.00,,,0.00,WUHU216HW,2013-05-03 13:30:00,
2013-05-03 08:35:00,30.4,27.4,30.45,North,0,2.0,2.0,88,0.00,,,0.00,WUHU216HW,2013-05-03 13:35:00,
2013-05-03 09:00:00,30.6,27.6,30.45,North,0,2.7,2.7,88,0.00,,,0.00,WUHU216HW,2013-05-03 14:00:00,
2013-05-03 09:05:00,30.6,27.6,30.45,North,0,2.7,2.7,88,0.00,,,0.00,WUHU216HW,2013-05-03 14:05:00,
2013-05-03 09:30:00,30.8,27.7,30.44,North,0,2.9,2.9,88,0.00,,,0.00,WUHU216HW,2013-05-03 14:30:00,
2013-05-03 09:35:00,30.8,27.7,30.44,North,0,2.9,2.9,88,0.00,,,0.00,WUHU216HW,2013-05-03 14:35:00,
2013-05-03 10:00:00,31.0,27.9,30.43,North,0,0.4,0.4,88,0.00,,,0.00,WUHU216HW,2013-05-03 15:00:00,
2013-05-03 10:05:00,31.0,27.9,30.43,North,0,0.4,0.4,88,0.00,,,0.00,WUHU216HW,2013-05-03 15:05:00,
2013-05-03 10:10:00,31.0,27.9,30.43,North,0,0.4,0.4,88,0.00,,,0.00,WUHU216HW,2013-05-03 15:10:00,
2013-05-03 10:30:00,31.3,28.5,30.43,North,0,0.4,0.4,89,0.00,,,0.00,WUHU216HW,2013-05-03 15:30:00,
2013-05-03 10:35:00,31.3,28.5,30.43,North,0,0.4,0.4,89,0.00,,,0.00,WUHU216HW,2013-05-03 15:35:00,
2013-05-03 11:00:00,31.3,28.5,30.43,North,0,1.8,1.8,89,0.00,,,0.00,WUHU216HW,2013-05-03 16:00:00,
2013-05-03 11:05:00,31.3,28.5,30.43,North,0,2.7,2.7,89,0.00,,,0.00,WUHU216HW,2013-05-03 16:05:00,
2013-05-03 11:10:00,31.3,28.5,30.43,North,0,2.7,2.7,89,0.00,,,0.00,WUHU216HW,2013-05-03 16:10:00,
2013-05-03 11:30:00,31.7,28.9,30.42,North,0,2.2,2.2,89,0.00,,,0.00,WUHU216HW,2013-05-03 16:30:00,
2013-05-03 11:35:00,31.7,28.9,30.42,North,0,2.2,2.2,89,0.00,,,0.00,WUHU216HW,2013-05-03 16:35:00,
2013-05-03 12:00:00,31.5,28.1,30.42,North,0,2.7,2.7,87,0.00,,,0.00,WUHU216HW,2013-05-03 17:00:00,
2013-05-03 12:05:00,31.5,28.1,30.42,North,0,2.7,2.7,87,0.00,,,0.00,WUHU216HW,2013-05-03 17:05:00,
2013-05-03 12:10:00,31.5,28.1,30.42,North,0,2.7,2.7,87,0.00,,,0.00,WUHU216HW,2013-05-03 17:10:00,
2013-05-03 12:30:00,31.9,28.8,30.41,North,0,2.7,2.7,88,0.00,,,0.00,WUHU216HW,2013-05-03 17:30:00,
2013-05-03 12:35:00,31.9,28.8,30.41,North,0,2.7,2.7,88,0.00,,,0.00,WUHU216HW,2013-05-03 17:35:00,
2013-05-03 13:00:00,32.2,29.4,30.41,North,0,2.9,2.9,89,0.00,,,0.00,WUHU216HW,2013-05-03 18:00:00,
2013-05-03 13:05:00,32.2,29.4,30.41,North,0,4.0,4.0,89,0.00,,,0.00,WUHU216HW,2013-05-03 18:05:00,
2013-05-03 13:10:00,32.2,29.4,30.41,North,0,4.0,4.0,89,0.00,,,0.00,WUHU216HW,2013-05-03 18:10:00,
2013-05-03 13:30:00,32.4,29.5,30.40,North,0,1.8,1.8,89,0.00,,,0.00,WUHU216HW,2013-05-03 18:30:00,
2013-05-03 13:35:00,32.4,29.5,30.40,North,0,1.8,1.8,89,0.00,,,0.00,WUHU216HW,2013-05-03 18:35:00,
2013-05-03 14:00:00,32.6,29.7,30.39,North,0,1.1,1.1,89,0.00,,,0.00,WUHU216HW,2013-05-03 19:00:00,
2013-05-03 14:05:00,32.6,29.7,30.39,North,0,1.1,1.1,89,0.00,,,0.00,WUHU216HW,2013-05-03 19:05:00,
2013-05-03 14:30:00,32.9,30.1,30.39,North,0,1.1,1.1,89,0.00,,,0.00,WUHU216HW,2013-05-03 19:30:00,
2013-05-03 14:35:00,32.9,30.1,30.39,North,0,1.1,1.1,89,0.00,,,0.00,WUHU216HW,2013-05-03 19:35:00,
2013-05-03 15:00:00,33.5,30.2,30.38,North,0,3.4,3.4,88,0.00,,,0.00,WUHU216HW,2013-05-03 20:00:00,
2013-05-03 15:05:00,33.5,30.2,30.38,North,0,3.4,3.4,88,0.00,,,0.00,WUHU216HW,2013-05-03 20:05:00,
2013-05-03 15:30:00,33.8,30.6,30.38,North,0,1.1,1.1,88,0.00,,,0.00,WUHU216HW,2013-05-03 20:30:00,
2013-05-03 15:35:00,33.8,30.6,30.38,North,0,1.1,1.1,88,0.00,,,0.00,WUHU216HW,2013-05-03 20:35:00,
2013-05-03 16:00:00,33.8,30.6,30.38,North,0,1.3,1.3,88,0.01,,,0.00,WUHU216HW,2013-05-03 21:00:00,
2013-05-03 16:05:00,33.8,30.6,30.38,North,0,1.3,1.3,88,0.01,,,0.00,WUHU216HW,2013-05-03 21:05:00,
2013-05-03 16:30:00,34.0,30.8,30.40,North,0,0.9,0.9,88,0.01,,,0.01,WUHU216HW,2013-05-03 21:30:00,
2013-05-03 16:35:00,34.0,30.8,30.40,North,0,0.9,0.9,88,0.01,,,0.01,WUHU216HW,2013-05-03 21:35:00,
2013-05-03 17:00:00,33.8,30.9,30.39,North,0,1.1,1.1,89,0.00,,,0.01,WUHU216HW,2013-05-03 22:00:00,
2013-05-03 17:05:00,33.8,30.9,30.39,North,0,1.1,1.1,89,0.00,,,0.01,WUHU216HW,2013-05-03 22:05:00,
2013-05-03 17:30:00,34.0,31.1,30.38,North,0,2.5,2.5,89,0.00,,,0.01,WUHU216HW,2013-05-03 22:30:00,
2013-05-03 17:35:00,34.0,31.1,30.38,North,0,2.5,2.5,89,0.00,,,0.01,WUHU216HW,2013-05-03 22:35:00,
2013-05-03 18:00:00,34.2,31.2,30.38,North,0,0.4,0.4,89,0.00,,,0.01,WUHU216HW,2013-05-03 23:00:00,
2013-05-03 18:05:00,34.2,31.2,30.38,North,0,0.4,0.4,89,0.00,,,0.01,WUHU216HW,2013-05-03 23:05:00,
2013-05-03 18:30:00,34.0,31.1,30.38,North,0,1.8,1.8,89,0.00,,,0.01,WUHU216HW,2013-05-03 23:30:00,
2013-05-03 18:35:00,34.0,31.1,30.38,North,0,1.8,1.8,89,0.00,,,0.01,WUHU216HW,2013-05-03 23:35:00,
2013-05-03 19:00:00,33.8,30.9,30.38,North,0,2.2,2.2,89,0.00,,,0.01,WUHU216HW,2013-05-04 00:00:00,
2013-05-03 19:05:00,33.8,30.9,30.38,North,0,2.2,2.2,89,0.00,,,0.01,WUHU216HW,2013-05-04 00:05:00,
2013-05-03 19:30:00,33.5,30.8,30.38,North,0,3.6,3.6,90,0.00,,,0.01,WUHU216HW,2013-05-04 00:30:00,
2013-05-03 19:35:00,33.5,30.8,30.38,North,0,3.6,3.6,90,0.00,,,0.01,WUHU216HW,2013-05-04 00:35:00,
2013-05-03 20:00:00,33.5,31.1,30.38,North,0,1.1,1.1,91,0.00,,,0.01,WUHU216HW,2013-05-04 01:00:00,
2013-05-03 20:05:00,33.5,31.1,30.38,North,0,1.1,1.1,91,0.00,,,0.01,WUHU216HW,2013-05-04 01:05:00,
2013-05-03 20:10:00,33.5,31.1,30.38,North,0,1.1,1.1,91,0.00,,,0.01,WUHU216HW,2013-05-04 01:10:00,
2013-05-03 20:30:00,33.5,30.8,30.37,North,0,1.1,1.1,90,0.00,,,0.01,WUHU216HW,2013-05-04 01:30:00,
2013-05-03 20:35:00,33.5,30.8,30.37,North,0,1.1,1.1,90,0.00,,,0.01,WUHU216HW,2013-05-04 01:35:00,
2013-05-03 21:00:00,33.5,31.1,30.38,North,0,1.6,1.6,91,0.00,,,0.01,WUHU216HW,2013-05-04 02:00:00,
2013-05-03 21:05:00,33.5,31.1,30.38,North,0,2.2,2.2,91,0.00,,,0.01,WUHU216HW,2013-05-04 02:05:00,
2013-05-03 21:10:00,33.5,31.1,30.38,North,0,2.2,2.2,91,0.00,,,0.01,WUHU216HW,2013-05-04 02:10:00,
2013-05-03 21:30:00,33.5,31.1,30.38,North,0,1.8,1.8,91,0.00,,,0.01,WUHU216HW,2013-05-04 02:30:00,
2013-05-03 21:35:00,33.5,31.1,30.38,North,0,1.8,1.8,91,0.00,,,0.01,WUHU216HW,2013-05-04 02:35:00,
2013-05-03 22:00:00,33.5,31.1,30.38,North,0,0.7,0.7,91,0.00,,,0.01,WUHU216HW,2013-05-04 03:00:00,
2013-05-03 22:05:00,33.5,31.1,30.38,North,0,0.7,0.7,91,0.00,,,0.01,WUHU216HW,2013-05-04 03:05:00,
2013-05-03 22:10:00,33.5,31.1,30.38,North,0,0.7,0.7,91,0.00,,,0.01,WUHU216HW,2013-05-04 03:10:00,
2013-05-03 22:30:00,33.7,31.2,30.38,North,0,1.1,1.1,91,0.00,,,0.01,WUHU216HW,2013-05-04 03:30:00,
2013-05-03 22:35:00,33.7,31.2,30.38,North,0,1.1,1.1,91,0.00,,,0.01,WUHU216HW,2013-05-04 03:35:00,
2013-05-03 23:00:00,33.8,31.4,30.37,North,0,0.9,0.9,91,0.00,,,0.01,WUHU216HW,2013-05-04 04:00:00,
2013-05-03 23:01:00,33.7,31.2,30.37,North,0,0.9,0.9,91,0.00,,,0.01,WUHU216HW,2013-05-04 04:01:00,
2013-05-03 23:06:00,33.7,31.2,30.37,North,0,0.9,0.9,91,0.00,,,0.01,WUHU216HW,2013-05-04 04:06:00,
2013-05-03 23:30:00,33.8,31.1,30.37,North,0,0.2,0.2,90,0.00,,,0.01,WUHU216HW,2013-05-04 04:30:00,
2013-05-03 23:35:00,33.8,31.1,30.37,North,0,0.2,0.2,90,0.00,,,0.01,WUHU216HW,2013-05-04 04:35:00,